Time;durP1;ratioP1;P1;durP2;ratioP2;P2;SDS_P1;SDS_P2;PMS_P1;PMS_P2;Temp;Humidity;BMP_temperature;BMP_pressure;BME280_temperature;BME280_humidity;BME280_pressure;Samples;Min_cycle;Max_cycle;Signal;HPM_P1;HPM_P2
2023/12/11 00:02:39;;;;;;;2.63;2.40;;;;;;;;;;6243124;22;20232;-87
2023/12/11 00:05:07;;;;;;;4.23;3.27;;;;;;;;;;6242760;22;20640;-87
2023/12/11 00:07:45;;;;;;;4.47;2.30;;;;;;;;;;6243084;22;20207;-86
2023/12/11 00:10:23;;;;;;;5.87;3.10;;;;;;;;;;6243454;22;20171;-86
2023/12/11 00:12:52;;;;;;;9.33;4.00;;;;;;;;;;6245398;23;20174;-86
2023/12/11 00:15:23;;;;;;;7.67;3.13;;;;;;;;;;6244112;22;20504;-87
2023/12/11 00:17:51;;;;;;;5.20;3.50;;;;;;;;;;6243784;22;20171;-86
2023/12/11 00:20:19;;;;;;;6.53;3.33;;;;;;;;;;6247928;22;20225;-86
2023/12/11 00:22:49;;;;;;;4.90;3.57;;;;;;;;;;6244745;22;20166;-86
2023/12/11 00:25:16;;;;;;;7.00;3.87;;;;;;;;;;6244125;22;20553;-87
2023/12/11 00:27:44;;;;;;;8.10;3.20;;;;;;;;;;6244275;22;20228;-87
2023/12/11 00:30:14;;;;;;;5.47;3.33;;;;;;;;;;6244301;22;20355;-88
2023/12/11 00:32:42;;;;;;;9.73;5.97;;;;;;;;;;6244429;22;20167;-87
2023/12/11 00:35:09;;;;;;;5.70;5.20;;;;;;;;;;6243333;22;20163;-87
2023/12/11 00:37:37;;;;;;;6.23;3.63;;;;;;;;;;6243550;22;20167;-86
2023/12/11 00:40:06;;;;;;;5.73;4.23;;;;;;;;;;6243866;22;20217;-86
2023/12/11 00:42:33;;;;;;;5.83;3.50;;;;;;;;;;6243378;22;20225;-86
2023/12/11 00:45:00;;;;;;;7.30;4.03;;;;;;;;;;6243194;22;20171;-88
2023/12/11 00:47:28;;;;;;;6.90;4.40;;;;;;;;;;6242867;22;20166;-87
2023/12/11 00:49:56;;;;;;;9.23;4.87;;;;;;;;;;6243364;22;20245;-87
2023/12/11 00:52:23;;;;;;;7.00;4.60;;;;;;;;;;6243502;22;20170;-86
2023/12/11 00:54:51;;;;;;;8.27;5.37;;;;;;;;;;6242319;22;20186;-87
2023/12/11 00:57:22;;;;;;;10.60;5.07;;;;;;;;;;6244783;22;20521;-87
2023/12/11 00:59:49;;;;;;;8.37;4.77;;;;;;;;;;6243426;22;20225;-85
2023/12/11 01:02:18;;;;;;;6.07;4.13;;;;;;;;;;6244486;23;20170;-86
2023/12/11 01:04:46;;;;;;;10.43;5.97;;;;;;;;;;6242660;22;20471;-87
2023/12/11 01:07:13;;;;;;;8.30;4.80;;;;;;;;;;6242324;22;20179;-87
2023/12/11 01:09:41;;;;;;;11.03;4.50;;;;;;;;;;6243305;22;20159;-86
2023/12/11 01:12:09;;;;;;;7.57;4.10;;;;;;;;;;6243721;22;20316;-87
2023/12/11 01:14:40;;;;;;;6.37;4.70;;;;;;;;;;6243112;22;20166;-87
2023/12/11 01:17:08;;;;;;;3.83;3.43;;;;;;;;;;6242871;22;20687;-86
2023/12/11 01:19:35;;;;;;;3.93;3.50;;;;;;;;;;6242342;22;20179;-86
2023/12/11 01:22:02;;;;;;;2.03;1.73;;;;;;;;;;6243150;22;20275;-87
2023/12/11 01:24:30;;;;;;;2.80;2.10;;;;;;;;;;6242431;22;20203;-86
2023/12/11 01:26:58;;;;;;;2.00;1.90;;;;;;;;;;6242960;22;20174;-87
2023/12/11 01:29:27;;;;;;;2.13;2.00;;;;;;;;;;6243535;22;20171;-86
2023/12/11 01:31:57;;;;;;;2.00;1.80;;;;;;;;;;6242548;22;20726;-87
2023/12/11 01:34:24;;;;;;;1.60;1.50;;;;;;;;;;6242372;22;20174;-87
2023/12/11 01:36:51;;;;;;;1.60;1.33;;;;;;;;;;6244586;22;20237;-86
2023/12/11 01:39:19;;;;;;;1.23;1.23;;;;;;;;;;6247780;23;20639;-87
2023/12/11 01:41:46;;;;;;;1.53;1.37;;;;;;;;;;6248526;22;20202;-86
2023/12/11 01:44:14;;;;;;;1.23;1.13;;;;;;;;;;6246047;22;20166;-87
2023/12/11 01:46:41;;;;;;;1.67;1.07;;;;;;;;;;6243028;22;20167;-87
2023/12/11 01:49:10;;;;;;;1.43;1.33;;;;;;;;;;6242214;23;20217;-86
2023/12/11 01:51:40;;;;;;;1.83;1.70;;;;;;;;;;6242030;22;20174;-87
2023/12/11 01:54:08;;;;;;;2.03;1.63;;;;;;;;;;6242261;22;20167;-89
2023/12/11 01:56:36;;;;;;;1.63;1.53;;;;;;;;;;6243078;22;20644;-88
2023/12/11 01:59:04;;;;;;;1.70;1.60;;;;;;;;;;6242323;22;20171;-86
2023/12/11 02:01:44;;;;;;;1.30;1.20;;;;;;;;;;6242920;22;20205;-88
2023/12/11 02:04:15;;;;;;;1.20;1.20;;;;;;;;;;6246543;22;20166;-87
2023/12/11 02:06:42;;;;;;;1.33;1.23;;;;;;;;;;6246703;22;20170;-87
2023/12/11 02:09:15;;;;;;;1.23;1.13;;;;;;;;;;6246882;22;20523;-86
2023/12/11 02:11:51;;;;;;;2.20;1.30;;;;;;;;;;6245172;22;20238;-87
2023/12/11 02:14:28;;;;;;;1.50;1.40;;;;;;;;;;6244517;22;20178;-88
2023/12/11 02:17:09;;;;;;;1.70;1.23;;;;;;;;;;6244971;22;20178;-89
2023/12/11 02:22:32;;;;;;;1.20;1.07;;;;;;;;;;6245426;22;20202;-86
2023/12/11 02:25:02;;;;;;;3.17;1.33;;;;;;;;;;6246185;22;20581;-87
2023/12/11 02:27:30;;;;;;;1.37;1.27;;;;;;;;;;6246037;22;20603;-88
2023/12/11 02:30:01;;;;;;;1.00;1.00;;;;;;;;;;6243939;22;20171;-88
2023/12/11 02:32:28;;;;;;;1.20;1.20;;;;;;;;;;6242828;22;20217;-88
2023/12/11 02:34:58;;;;;;;0.87;0.83;;;;;;;;;;6243765;22;20197;-87
2023/12/11 02:37:26;;;;;;;0.80;0.80;;;;;;;;;;6242955;22;20162;-88
2023/12/11 02:39:53;;;;;;;1.47;1.43;;;;;;;;;;6242545;22;20166;-87
2023/12/11 02:42:20;;;;;;;1.30;1.10;;;;;;;;;;6243452;22;20302;-86
2023/12/11 02:44:50;;;;;;;3.67;1.30;;;;;;;;;;6245162;22;20173;-86
2023/12/11 02:47:18;;;;;;;0.93;0.93;;;;;;;;;;6243309;22;20194;-86
2023/12/11 02:49:47;;;;;;;1.13;1.00;;;;;;;;;;6242854;22;20213;-88
2023/12/11 02:52:14;;;;;;;1.20;1.10;;;;;;;;;;6245567;22;20171;-85
2023/12/11 02:54:42;;;;;;;1.20;1.20;;;;;;;;;;6250942;22;20651;-85
2023/12/11 02:57:09;;;;;;;2.40;1.13;;;;;;;;;;6253374;22;20263;-86
2023/12/11 02:59:37;;;;;;;0.90;0.80;;;;;;;;;;6253606;22;20167;-85
2023/12/11 03:02:07;;;;;;;1.17;1.17;;;;;;;;;;6251210;22;20206;-85
2023/12/11 03:04:34;;;;;;;1.87;1.30;;;;;;;;;;6251421;22;20170;-86
2023/12/11 03:07:02;;;;;;;1.07;1.07;;;;;;;;;;6249904;22;20167;-87
2023/12/11 03:09:29;;;;;;;2.20;1.87;;;;;;;;;;6245339;22;20233;-87
2023/12/11 03:11:57;;;;;;;2.00;1.80;;;;;;;;;;6245441;22;20321;-86
2023/12/11 03:14:25;;;;;;;2.50;1.70;;;;;;;;;;6245786;22;20171;-86
2023/12/11 03:16:53;;;;;;;1.30;1.30;;;;;;;;;;6244690;22;20169;-87
2023/12/11 03:19:23;;;;;;;1.37;1.37;;;;;;;;;;6243689;22;20233;-87
2023/12/11 03:21:50;;;;;;;1.77;1.67;;;;;;;;;;6243898;23;20194;-88
2023/12/11 03:24:17;;;;;;;2.10;1.90;;;;;;;;;;6242545;22;20206;-87
2023/12/11 03:26:45;;;;;;;0.93;0.90;;;;;;;;;;6243094;22;20170;-90
2023/12/11 03:29:13;;;;;;;1.13;1.03;;;;;;;;;;6243134;22;20171;-86
2023/12/11 03:31:41;;;;;;;1.20;1.20;;;;;;;;;;6243381;22;20198;-86
2023/12/11 03:34:08;;;;;;;2.53;0.90;;;;;;;;;;6242889;22;20670;-87
2023/12/11 03:36:38;;;;;;;1.07;1.07;;;;;;;;;;6242683;22;20163;-87
2023/12/11 03:39:07;;;;;;;1.70;1.57;;;;;;;;;;6241306;22;20181;-87
2023/12/11 03:41:35;;;;;;;1.00;1.00;;;;;;;;;;6241951;22;20260;-87
2023/12/11 03:44:02;;;;;;;0.97;0.97;;;;;;;;;;6242510;22;20171;-87
2023/12/11 03:46:30;;;;;;;0.60;0.60;;;;;;;;;;6241721;22;20198;-86
2023/12/11 03:48:57;;;;;;;0.87;0.87;;;;;;;;;;6242184;22;20159;-86
2023/12/11 03:51:25;;;;;;;0.70;0.70;;;;;;;;;;6242791;22;20339;-86
2023/12/11 03:53:59;;;;;;;2.03;1.00;;;;;;;;;;6241727;22;20167;-88
2023/12/11 03:56:26;;;;;;;1.37;1.33;;;;;;;;;;6241973;22;20159;-88
2023/12/11 03:58:53;;;;;;;1.50;0.93;;;;;;;;;;6244629;22;20162;-86
2023/12/11 04:01:20;;;;;;;0.80;0.80;;;;;;;;;;6244999;22;20259;-88
2023/12/11 04:03:51;;;;;;;0.90;0.90;;;;;;;;;;6244739;22;20163;-87
2023/12/11 04:06:21;;;;;;;0.80;0.80;;;;;;;;;;6243888;22;20228;-87
2023/12/11 04:08:51;;;;;;;0.90;0.90;;;;;;;;;;6244664;22;20202;-87
2023/12/11 04:11:25;;;;;;;1.23;1.23;;;;;;;;;;6245344;22;20175;-88
2023/12/11 04:13:54;;;;;;;1.47;1.37;;;;;;;;;;6243277;22;20162;-88
2023/12/11 04:16:22;;;;;;;1.07;1.07;;;;;;;;;;6243889;22;20170;-88
2023/12/11 04:18:50;;;;;;;6.30;1.53;;;;;;;;;;6245353;22;20196;-86
2023/12/11 04:21:18;;;;;;;2.17;2.00;;;;;;;;;;6244220;22;20206;-86
2023/12/11 04:23:46;;;;;;;1.67;1.57;;;;;;;;;;6244956;22;20189;-88
2023/12/11 04:26:14;;;;;;;3.60;1.50;;;;;;;;;;6243857;23;20166;-86
2023/12/11 04:28:43;;;;;;;1.67;1.57;;;;;;;;;;6244231;23;20183;-86
2023/12/11 04:31:10;;;;;;;1.90;1.70;;;;;;;;;;6244309;23;20167;-87
2023/12/11 04:33:41;;;;;;;1.70;1.53;;;;;;;;;;6244167;23;20167;-88
2023/12/11 04:36:10;;;;;;;1.10;1.10;;;;;;;;;;6243235;23;20228;-87
2023/12/11 04:38:47;;;;;;;1.40;1.33;;;;;;;;;;6243534;23;20628;-87
2023/12/11 04:41:15;;;;;;;1.50;1.50;;;;;;;;;;6244629;23;20201;-90
2023/12/11 04:43:51;;;;;;;10.47;1.80;;;;;;;;;;6244216;23;20179;-87
2023/12/11 04:46:33;;;;;;;1.17;1.17;;;;;;;;;;6243419;23;20167;-89
2023/12/11 04:49:05;;;;;;;2.70;1.03;;;;;;;;;;6243832;23;20208;-86
2023/12/11 04:51:34;;;;;;;1.10;1.10;;;;;;;;;;6243347;23;20186;-86
2023/12/11 04:54:02;;;;;;;1.50;1.50;;;;;;;;;;6244408;23;20652;-86
2023/12/11 04:56:36;;;;;;;1.60;1.57;;;;;;;;;;6243854;23;20182;-87
2023/12/11 04:59:09;;;;;;;1.63;1.53;;;;;;;;;;6243758;23;20175;-87
2023/12/11 05:01:41;;;;;;;1.60;1.50;;;;;;;;;;6243647;23;20262;-87
2023/12/11 05:04:11;;;;;;;1.67;1.57;;;;;;;;;;6244194;23;20186;-88
2023/12/11 05:06:39;;;;;;;2.40;2.30;;;;;;;;;;6243356;23;20167;-88
2023/12/11 05:09:28;;;;;;;1.60;1.50;;;;;;;;;;6244606;23;20177;-86
2023/12/11 05:11:56;;;;;;;1.50;1.40;;;;;;;;;;6217168;23;20182;-87
2023/12/11 05:14:26;;;;;;;1.13;1.00;;;;;;;;;;6242415;23;20166;-86
2023/12/11 05:16:54;;;;;;;1.93;1.80;;;;;;;;;;6243331;23;20163;-86
2023/12/11 05:19:22;;;;;;;2.47;1.63;;;;;;;;;;6243067;23;20183;-86
2023/12/11 05:21:50;;;;;;;2.70;1.67;;;;;;;;;;6242552;23;20565;-87
2023/12/11 05:24:20;;;;;;;1.93;1.80;;;;;;;;;;6242599;22;20203;-86
2023/12/11 05:26:50;;;;;;;3.67;2.40;;;;;;;;;;6243173;22;20546;-88
2023/12/11 05:29:19;;;;;;;3.13;2.63;;;;;;;;;;6243588;22;20170;-87
2023/12/11 05:31:52;;;;;;;2.63;2.43;;;;;;;;;;6243816;22;20269;-88
2023/12/11 05:34:20;;;;;;;3.00;2.77;;;;;;;;;;6244219;22;20183;-85
2023/12/11 05:36:52;;;;;;;2.80;2.43;;;;;;;;;;6243023;22;20173;-88
2023/12/11 05:39:30;;;;;;;;;;;;;;;;;;;;;
2023/12/11 05:41:59;;;;;;;4.47;2.23;;;;;;;;;;6243247;23;20699;-85
2023/12/11 05:44:41;;;;;;;2.30;2.10;;;;;;;;;;6243621;22;20249;-86
2023/12/11 05:47:12;;;;;;;2.50;2.30;;;;;;;;;;6243801;22;20169;-89
2023/12/11 05:49:44;;;;;;;5.17;2.53;;;;;;;;;;6243511;22;20166;-87
2023/12/11 05:52:12;;;;;;;4.87;2.53;;;;;;;;;;6243529;23;20167;-86
2023/12/11 05:54:43;;;;;;;2.60;2.40;;;;;;;;;;6242819;22;20163;-86
2023/12/11 05:57:10;;;;;;;10.77;2.30;;;;;;;;;;6243834;22;20647;-87
2023/12/11 05:59:39;;;;;;;3.53;2.20;;;;;;;;;;6243796;22;20641;-87
2023/12/11 06:02:06;;;;;;;2.50;2.30;;;;;;;;;;6242774;23;20540;-87
2023/12/11 06:04:38;;;;;;;1.87;1.83;;;;;;;;;;6242593;22;20170;-86
2023/12/11 06:07:07;;;;;;;3.77;2.27;;;;;;;;;;6242246;22;20174;-88
2023/12/11 06:09:36;;;;;;;4.20;2.83;;;;;;;;;;6242738;22;20530;-87
2023/12/11 06:12:04;;;;;;;4.57;2.60;;;;;;;;;;6242564;23;20629;-88
2023/12/11 06:14:32;;;;;;;3.80;2.00;;;;;;;;;;6241848;22;20167;-88
2023/12/11 06:17:00;;;;;;;2.47;2.27;;;;;;;;;;6243199;22;20193;-88
2023/12/11 06:19:28;;;;;;;2.10;2.00;;;;;;;;;;6243248;22;20578;-88
2023/12/11 06:22:00;;;;;;;3.00;2.60;;;;;;;;;;6242690;23;20220;-86
2023/12/11 06:24:28;;;;;;;2.27;2.07;;;;;;;;;;6242358;22;20213;-86
2023/12/11 06:26:58;;;;;;;3.27;2.27;;;;;;;;;;6241878;22;20167;-87
2023/12/11 06:29:27;;;;;;;2.07;1.97;;;;;;;;;;6240924;22;20248;-88
2023/12/11 06:31:59;;;;;;;2.43;2.27;;;;;;;;;;6242308;22;20170;-86
2023/12/11 06:34:31;;;;;;;9.13;2.63;;;;;;;;;;6242391;22;20650;-87
2023/12/11 06:37:05;;;;;;;3.23;2.17;;;;;;;;;;6242371;22;20173;-87
2023/12/11 06:39:37;;;;;;;3.30;2.40;;;;;;;;;;6243573;22;20182;-86
2023/12/11 06:42:05;;;;;;;2.53;2.33;;;;;;;;;;6242869;22;20218;-88
2023/12/11 06:44:33;;;;;;;2.73;2.37;;;;;;;;;;6241982;22;20896;-86
2023/12/11 06:47:06;;;;;;;3.00;2.47;;;;;;;;;;6241732;22;20285;-87
2023/12/11 06:49:42;;;;;;;2.07;1.83;;;;;;;;;;6240111;22;20198;-86
2023/12/11 06:52:28;;;;;;;2.90;2.67;;;;;;;;;;6242098;22;20166;-88
2023/12/11 06:54:58;;;;;;;2.10;2.00;;;;;;;;;;6242074;22;20193;-87
2023/12/11 06:57:31;;;;;;;2.30;2.20;;;;;;;;;;6241939;22;20170;-88
2023/12/11 07:00:02;;;;;;;2.40;2.20;;;;;;;;;;6242732;22;20162;-87
2023/12/11 07:02:30;;;;;;;1.80;1.70;;;;;;;;;;6242737;22;20206;-86
2023/12/11 07:04:59;;;;;;;1.30;1.30;;;;;;;;;;6241491;22;20249;-87
2023/12/11 07:07:45;;;;;;;4.10;1.83;;;;;;;;;;6242105;22;20171;-88
2023/12/11 07:10:15;;;;;;;1.27;1.27;;;;;;;;;;6241913;22;20201;-86
2023/12/11 07:12:45;;;;;;;1.97;1.60;;;;;;;;;;6241375;22;20257;-87
2023/12/11 07:18:13;;;;;;;2.23;1.60;;;;;;;;;;6238220;22;20202;-88
2023/12/11 07:20:41;;;;;;;2.23;2.03;;;;;;;;;;6240959;22;20185;-87
2023/12/11 07:23:16;;;;;;;1.43;1.43;;;;;;;;;;6240681;22;20198;-89
2023/12/11 07:25:44;;;;;;;1.97;1.70;;;;;;;;;;6243030;22;20198;-87
2023/12/11 07:28:14;;;;;;;15.90;1.40;;;;;;;;;;6244588;22;20167;-87
2023/12/11 07:30:42;;;;;;;1.90;1.80;;;;;;;;;;6251881;22;20246;-86
2023/12/11 07:33:13;;;;;;;2.70;1.73;;;;;;;;;;6243312;22;20634;-88
2023/12/11 07:35:41;;;;;;;8.30;1.30;;;;;;;;;;6242899;22;20610;-87
2023/12/11 07:38:12;;;;;;;1.97;1.20;;;;;;;;;;6241339;22;20485;-86
2023/12/11 07:40:49;;;;;;;1.53;1.17;;;;;;;;;;6243947;22;20162;-88
2023/12/11 07:43:20;;;;;;;1.10;1.10;;;;;;;;;;6241323;22;20286;-87
2023/12/11 07:45:48;;;;;;;2.97;0.83;;;;;;;;;;6241891;22;20174;-88
2023/12/11 07:48:16;;;;;;;1.20;1.20;;;;;;;;;;6244651;22;20167;-87
2023/12/11 07:50:47;;;;;;;1.00;1.00;;;;;;;;;;6241481;22;20197;-86
2023/12/11 07:53:22;;;;;;;1.50;1.40;;;;;;;;;;6243097;23;20171;-87
2023/12/11 07:55:57;;;;;;;1.60;1.50;;;;;;;;;;6240259;22;20173;-87
2023/12/11 07:58:25;;;;;;;1.70;1.60;;;;;;;;;;6240698;22;20491;-87
2023/12/11 08:00:57;;;;;;;2.00;1.77;;;;;;;;;;6240830;22;20636;-87
2023/12/11 08:03:27;;;;;;;1.10;1.10;;;;;;;;;;6238410;23;20249;-86
2023/12/11 08:05:58;;;;;;;4.20;1.57;;;;;;;;;;6240782;22;20189;-87
2023/12/11 08:08:26;;;;;;;1.47;1.37;;;;;;;;;;6241112;23;20170;-87
2023/12/11 08:10:56;;;;;;;1.43;1.33;;;;;;;;;;6242755;22;20173;-89
2023/12/11 08:13:35;;;;;;;2.23;1.57;;;;;;;;;;6244098;22;20166;-87
2023/12/11 08:16:06;;;;;;;1.53;1.43;;;;;;;;;;6242515;22;20242;-87
2023/12/11 08:18:38;;;;;;;3.00;1.00;;;;;;;;;;6243865;22;20242;-87
2023/12/11 08:21:06;;;;;;;3.80;1.40;;;;;;;;;;6243874;22;20696;-86
2023/12/11 08:23:34;;;;;;;1.60;1.57;;;;;;;;;;6244063;22;20195;-87
2023/12/11 08:26:03;;;;;;;1.30;1.17;;;;;;;;;;6243079;22;20199;-87
2023/12/11 08:28:30;;;;;;;1.93;1.50;;;;;;;;;;6244538;22;20197;-86
2023/12/11 08:30:59;;;;;;;1.47;1.37;;;;;;;;;;6243272;22;20235;-87
2023/12/11 08:33:26;;;;;;;1.70;1.60;;;;;;;;;;6243364;22;20240;-88
2023/12/11 08:35:56;;;;;;;1.27;1.17;;;;;;;;;;6242876;22;20198;-87
2023/12/11 08:38:24;;;;;;;1.77;1.60;;;;;;;;;;6244368;22;20273;-87
2023/12/11 08:40:51;;;;;;;1.27;1.17;;;;;;;;;;6243323;22;20170;-86
2023/12/11 08:43:21;;;;;;;1.60;1.50;;;;;;;;;;6242391;22;20659;-87
2023/12/11 08:45:50;;;;;;;2.00;1.90;;;;;;;;;;6242639;22;20177;-86
2023/12/11 08:48:17;;;;;;;5.07;1.57;;;;;;;;;;6242341;22;20198;-87
2023/12/11 08:50:47;;;;;;;1.47;1.37;;;;;;;;;;6243220;22;20305;-86
2023/12/11 08:53:18;;;;;;;2.90;1.93;;;;;;;;;;6242931;22;20581;-88
2023/12/11 08:55:48;;;;;;;2.77;2.07;;;;;;;;;;6244885;22;20163;-88
2023/12/11 08:58:16;;;;;;;3.73;1.87;;;;;;;;;;6244688;22;20190;-89
2023/12/11 09:00:45;;;;;;;9.27;2.40;;;;;;;;;;6245203;22;20234;-87
2023/12/11 09:03:12;;;;;;;2.90;2.70;;;;;;;;;;6243433;22;20197;-86
2023/12/11 09:05:41;;;;;;;3.90;1.90;;;;;;;;;;6242571;22;20190;-87
2023/12/11 09:08:09;;;;;;;2.30;1.53;;;;;;;;;;6244447;22;20679;-87
2023/12/11 09:10:37;;;;;;;5.10;1.20;;;;;;;;;;6244106;22;20167;-87
2023/12/11 09:13:05;;;;;;;2.93;1.40;;;;;;;;;;6244492;22;20170;-87
2023/12/11 09:15:33;;;;;;;1.73;1.63;;;;;;;;;;6242889;22;20514;-86
2023/12/11 09:18:02;;;;;;;2.20;2.00;;;;;;;;;;6242242;22;20173;-85
2023/12/11 09:20:31;;;;;;;2.20;1.80;;;;;;;;;;6244635;23;20220;-86
2023/12/11 09:22:59;;;;;;;4.00;1.83;;;;;;;;;;6243564;22;20201;-87
2023/12/11 09:25:28;;;;;;;3.43;1.50;;;;;;;;;;6243277;22;20284;-88
2023/12/11 09:27:56;;;;;;;2.30;1.93;;;;;;;;;;6243465;22;20228;-88
2023/12/11 09:30:28;;;;;;;2.37;1.40;;;;;;;;;;6242861;23;20496;-87
2023/12/11 09:32:56;;;;;;;3.40;2.03;;;;;;;;;;6242885;22;20166;-86
2023/12/11 09:35:27;;;;;;;1.40;1.30;;;;;;;;;;6245585;22;20172;-88
2023/12/11 09:37:55;;;;;;;1.70;1.60;;;;;;;;;;6243657;22;20165;-88
2023/12/11 09:40:22;;;;;;;2.53;1.33;;;;;;;;;;6244543;22;20163;-88
2023/12/11 09:42:54;;;;;;;1.40;1.23;;;;;;;;;;6245220;22;20195;-86
2023/12/11 09:45:22;;;;;;;2.10;1.80;;;;;;;;;;6245229;22;20243;-87
2023/12/11 09:47:51;;;;;;;2.47;1.60;;;;;;;;;;6243803;22;20163;-87
2023/12/11 09:50:19;;;;;;;3.63;1.50;;;;;;;;;;6245946;22;20176;-87
2023/12/11 09:52:49;;;;;;;1.70;1.57;;;;;;;;;;6245548;22;20177;-87
2023/12/11 09:55:16;;;;;;;3.10;1.50;;;;;;;;;;6241935;22;20192;-87
2023/12/11 09:57:47;;;;;;;2.00;1.90;;;;;;;;;;6243498;22;20607;-86
2023/12/11 10:00:16;;;;;;;2.43;1.77;;;;;;;;;;6247261;22;20171;-87
2023/12/11 10:02:47;;;;;;;1.87;1.73;;;;;;;;;;6259547;22;20180;-86
2023/12/11 10:05:24;;;;;;;2.37;2.13;;;;;;;;;;6261365;22;20166;-86
2023/12/11 10:07:56;;;;;;;5.03;2.53;;;;;;;;;;6254367;23;20725;-87
2023/12/11 10:10:25;;;;;;;2.77;2.53;;;;;;;;;;6243743;22;20560;-87
2023/12/11 10:12:53;;;;;;;1.60;1.60;;;;;;;;;;6242575;22;20174;-89
2023/12/11 10:15:22;;;;;;;2.50;1.90;;;;;;;;;;6242655;22;20195;-87
2023/12/11 10:18:08;;;;;;;5.20;2.27;;;;;;;;;;6244217;22;20168;-87
2023/12/11 10:20:36;;;;;;;4.67;1.87;;;;;;;;;;6241984;22;20169;-88
2023/12/11 10:23:14;;;;;;;2.53;1.87;;;;;;;;;;6242718;22;20196;-87
2023/12/11 10:25:45;;;;;;;1.50;1.50;;;;;;;;;;6240814;22;20238;-87
2023/12/11 10:28:14;;;;;;;1.87;1.77;;;;;;;;;;6242258;22;20159;-87
2023/12/11 10:30:53;;;;;;;7.10;1.93;;;;;;;;;;6241641;22;20181;-88
2023/12/11 10:33:20;;;;;;;1.70;1.60;;;;;;;;;;6242986;22;20169;-87
2023/12/11 10:35:48;;;;;;;2.23;1.47;;;;;;;;;;6242026;22;20173;-87
2023/12/11 10:38:28;;;;;;;1.40;1.30;;;;;;;;;;6243017;22;20239;-87
2023/12/11 10:41:00;;;;;;;1.70;1.37;;;;;;;;;;6242851;22;20188;-87
2023/12/11 10:43:32;;;;;;;5.27;1.93;;;;;;;;;;6243287;22;20202;-87
2023/12/11 10:46:09;;;;;;;1.60;1.50;;;;;;;;;;6243221;22;20179;-87
2023/12/11 10:48:39;;;;;;;1.50;1.40;;;;;;;;;;6242888;23;20511;-87
2023/12/11 10:51:08;;;;;;;5.83;2.37;;;;;;;;;;6242294;22;20263;-87
2023/12/11 10:53:42;;;;;;;2.27;2.07;;;;;;;;;;6242474;22;20173;-87
2023/12/11 10:56:09;;;;;;;2.10;2.00;;;;;;;;;;6242249;22;20220;-88
2023/12/11 10:58:37;;;;;;;2.40;2.20;;;;;;;;;;6245784;22;20499;-86
2023/12/11 11:01:12;;;;;;;3.10;2.03;;;;;;;;;;6243829;22;20170;-87
2023/12/11 11:03:41;;;;;;;1.93;1.80;;;;;;;;;;6255172;22;20251;-86
2023/12/11 11:06:11;;;;;;;3.70;1.83;;;;;;;;;;6253672;22;20224;-85
2023/12/11 11:08:51;;;;;;;3.40;2.03;;;;;;;;;;6252020;22;20183;-86
2023/12/11 11:11:24;;;;;;;2.67;1.90;;;;;;;;;;6245952;22;20237;-89
2023/12/11 11:14:02;;;;;;;1.90;1.80;;;;;;;;;;6245726;23;20187;-86
2023/12/11 11:16:44;;;;;;;1.70;1.50;;;;;;;;;;6243761;22;20182;-87
2023/12/11 11:19:21;;;;;;;10.73;2.70;;;;;;;;;;6245093;22;20167;-88
2023/12/11 11:22:19;;;;;;;32.37;4.33;;;;;;;;;;6246973;22;20167;-89
2023/12/11 11:24:49;;;;;;;3.70;3.13;;;;;;;;;;6243703;22;20566;-87
2023/12/11 11:27:35;;;;;;;4.57;3.20;;;;;;;;;;6244241;22;20174;-88
2023/12/11 11:30:09;;;;;;;4.43;2.70;;;;;;;;;;6234209;22;20184;-87
2023/12/11 11:32:55;;;;;;;3.70;3.40;;;;;;;;;;6243582;22;20166;-87
2023/12/11 11:35:42;;;;;;;6.53;3.27;;;;;;;;;;6244794;22;20195;-87
2023/12/11 11:38:10;;;;;;;4.67;3.03;;;;;;;;;;6244585;23;20177;-86
2023/12/11 11:40:40;;;;;;;2.97;2.77;;;;;;;;;;6245560;22;20527;-87
2023/12/11 11:43:09;;;;;;;9.27;2.40;;;;;;;;;;6244381;22;20224;-86
2023/12/11 11:45:38;;;;;;;3.73;3.43;;;;;;;;;;6243366;22;20182;-87
2023/12/11 11:48:05;;;;;;;4.57;3.10;;;;;;;;;;6244493;22;20170;-87
2023/12/11 11:50:35;;;;;;;3.30;2.77;;;;;;;;;;6245607;22;20217;-87
2023/12/11 11:53:10;;;;;;;2.73;2.53;;;;;;;;;;6244192;22;20174;-88
2023/12/11 11:55:39;;;;;;;3.10;2.83;;;;;;;;;;6244008;22;20227;-86
2023/12/11 11:58:15;;;;;;;7.80;3.30;;;;;;;;;;6243415;22;20171;-86
2023/12/11 12:00:46;;;;;;;3.47;2.77;;;;;;;;;;6244138;22;20159;-86
2023/12/11 12:03:14;;;;;;;4.60;2.67;;;;;;;;;;6244080;22;20164;-86
2023/12/11 12:05:55;;;;;;;2.57;2.23;;;;;;;;;;6243490;22;20193;-87
2023/12/11 12:08:24;;;;;;;5.03;3.27;;;;;;;;;;6243819;22;20212;-87
2023/12/11 12:11:04;;;;;;;13.83;3.90;;;;;;;;;;6237588;22;20668;-85
2023/12/11 12:13:43;;;;;;;3.10;2.73;;;;;;;;;;6241612;22;20831;-88
2023/12/11 12:16:12;;;;;;;3.77;2.87;;;;;;;;;;6245562;22;20198;-87
2023/12/11 12:18:49;;;;;;;5.13;3.13;;;;;;;;;;6241522;22;20195;-87
2023/12/11 12:21:16;;;;;;;4.77;3.40;;;;;;;;;;6242313;22;20186;-88
2023/12/11 12:23:47;;;;;;;3.37;3.13;;;;;;;;;;6239658;22;20206;-88
2023/12/11 12:26:15;;;;;;;3.37;2.93;;;;;;;;;;6210252;23;20203;-87
2023/12/11 12:28:45;;;;;;;5.00;3.53;;;;;;;;;;6210961;23;20283;-87
2023/12/11 12:31:17;;;;;;;3.47;3.17;;;;;;;;;;6211380;23;20243;-88
2023/12/11 12:33:48;;;;;;;4.03;3.30;;;;;;;;;;6210276;23;20594;-87
2023/12/11 12:36:15;;;;;;;5.63;3.30;;;;;;;;;;6210656;23;20274;-88
2023/12/11 12:38:48;;;;;;;3.00;2.80;;;;;;;;;;6222838;23;20204;-87
2023/12/11 12:41:17;;;;;;;8.00;3.27;;;;;;;;;;6211582;23;20669;-89
2023/12/11 12:43:48;;;;;;;4.87;3.50;;;;;;;;;;6214975;23;20217;-87
2023/12/11 12:46:20;;;;;;;5.83;3.77;;;;;;;;;;6214617;23;20196;-87
2023/12/11 12:48:50;;;;;;;11.37;4.33;;;;;;;;;;6229096;23;20205;-88
2023/12/11 12:51:17;;;;;;;6.50;3.40;;;;;;;;;;6219100;23;20196;-85
2023/12/11 12:53:51;;;;;;;4.03;2.90;;;;;;;;;;6212763;23;20251;-88
2023/12/11 12:56:23;;;;;;;10.17;3.27;;;;;;;;;;6210296;23;20238;-87
2023/12/11 12:58:57;;;;;;;6.47;3.73;;;;;;;;;;6211840;23;20201;-88
2023/12/11 13:01:25;;;;;;;5.17;4.07;;;;;;;;;;6208923;23;20217;-88
2023/12/11 13:03:53;;;;;;;4.00;3.60;;;;;;;;;;6211775;23;20216;-88
2023/12/11 13:06:28;;;;;;;4.57;3.47;;;;;;;;;;6210575;23;20295;-89
2023/12/11 13:08:57;;;;;;;9.67;3.70;;;;;;;;;;6212382;23;20195;-87
2023/12/11 13:11:50;;;;;;;8.03;4.30;;;;;;;;;;6210464;23;20201;-88
2023/12/11 13:14:23;;;;;;;7.20;3.47;;;;;;;;;;6211332;23;20216;-87
2023/12/11 13:16:51;;;;;;;7.03;4.03;;;;;;;;;;6210490;23;20200;-89
2023/12/11 13:19:19;;;;;;;8.43;4.27;;;;;;;;;;6210072;23;20196;-87
2023/12/11 13:21:47;;;;;;;12.50;3.70;;;;;;;;;;6213644;23;20187;-87
2023/12/11 13:24:16;;;;;;;7.33;4.13;;;;;;;;;;6216315;22;20215;-85
2023/12/11 13:26:48;;;;;;;5.97;4.03;;;;;;;;;;6240864;22;20492;-86
2023/12/11 13:29:22;;;;;;;6.33;4.00;;;;;;;;;;6242046;22;20245;-86
2023/12/11 13:31:52;;;;;;;6.00;3.90;;;;;;;;;;6239795;22;20252;-87
2023/12/11 13:34:24;;;;;;;3.37;2.83;;;;;;;;;;6240480;22;20597;-88
2023/12/11 13:36:53;;;;;;;4.87;3.60;;;;;;;;;;6240853;22;20192;-87
2023/12/11 13:39:22;;;;;;;5.70;3.23;;;;;;;;;;6240494;22;20691;-86
2023/12/11 13:41:52;;;;;;;5.00;3.40;;;;;;;;;;6240533;22;20197;-86
2023/12/11 13:44:23;;;;;;;5.13;4.00;;;;;;;;;;6240352;22;20375;-88
2023/12/11 13:46:53;;;;;;;3.60;3.30;;;;;;;;;;6240809;22;20678;-86
2023/12/11 13:49:21;;;;;;;4.53;3.10;;;;;;;;;;6242252;22;20162;-88
2023/12/11 13:51:49;;;;;;;14.97;2.63;;;;;;;;;;6243324;22;20495;-87
2023/12/11 13:54:19;;;;;;;4.00;3.37;;;;;;;;;;6242297;22;20564;-87
2023/12/11 13:56:51;;;;;;;5.10;4.10;;;;;;;;;;6241994;22;20534;-87
2023/12/11 13:59:24;;;;;;;6.17;3.10;;;;;;;;;;6244184;22;20170;-88
2023/12/11 14:01:51;;;;;;;8.07;3.37;;;;;;;;;;6241949;22;20162;-87
2023/12/11 14:04:20;;;;;;;5.07;3.70;;;;;;;;;;6239422;22;20264;-88
2023/12/11 14:06:48;;;;;;;6.93;3.60;;;;;;;;;;6239383;22;20511;-87
2023/12/11 14:09:15;;;;;;;10.87;6.23;;;;;;;;;;6239749;22;20513;-86
2023/12/11 14:11:43;;;;;;;10.37;6.47;;;;;;;;;;6239462;22;20163;-87
2023/12/11 14:14:11;;;;;;;6.03;4.90;;;;;;;;;;6240537;22;20186;-86
2023/12/11 14:16:41;;;;;;;9.13;4.30;;;;;;;;;;6241429;22;20225;-86
2023/12/11 14:19:09;;;;;;;7.13;4.57;;;;;;;;;;6242074;22;20159;-88
2023/12/11 14:21:37;;;;;;;4.53;3.57;;;;;;;;;;6242935;22;20242;-87
2023/12/11 14:24:07;;;;;;;5.93;4.30;;;;;;;;;;6243698;22;20187;-88
2023/12/11 14:26:38;;;;;;;5.73;3.57;;;;;;;;;;6241967;22;20163;-88
2023/12/11 14:29:06;;;;;;;5.33;4.07;;;;;;;;;;6242938;23;20171;-87
2023/12/11 14:31:33;;;;;;;4.80;3.27;;;;;;;;;;6244752;22;20234;-87
2023/12/11 14:34:06;;;;;;;5.07;4.57;;;;;;;;;;6244250;22;20163;-87
2023/12/11 14:36:33;;;;;;;8.53;4.33;;;;;;;;;;6244256;22;20170;-87
2023/12/11 14:39:01;;;;;;;8.80;4.50;;;;;;;;;;6246218;22;20733;-87
2023/12/11 14:41:29;;;;;;;6.83;5.17;;;;;;;;;;6244471;22;20171;-89
2023/12/11 14:43:58;;;;;;;9.63;6.30;;;;;;;;;;6243453;22;20162;-85
2023/12/11 14:46:26;;;;;;;21.57;8.13;;;;;;;;;;6242336;22;20262;-88
2023/12/11 14:48:53;;;;;;;15.33;6.70;;;;;;;;;;6243205;22;20170;-88
2023/12/11 14:51:23;;;;;;;17.33;7.00;;;;;;;;;;6243066;22;20167;-88
2023/12/11 14:53:51;;;;;;;9.97;6.00;;;;;;;;;;6244145;22;20166;-88
2023/12/11 14:56:18;;;;;;;8.73;5.97;;;;;;;;;;6241269;22;20169;-87
2023/12/11 14:58:46;;;;;;;10.53;6.67;;;;;;;;;;6242739;22;20224;-88
2023/12/11 15:01:13;;;;;;;11.03;5.80;;;;;;;;;;6242494;22;20245;-87
2023/12/11 15:03:42;;;;;;;8.83;5.43;;;;;;;;;;6244625;22;20163;-87
2023/12/11 15:06:10;;;;;;;6.30;5.50;;;;;;;;;;6242607;22;20199;-86
2023/12/11 15:08:39;;;;;;;10.63;5.60;;;;;;;;;;6242199;22;20166;-86